Hartford, Connecticut
Traffic Map
Current Weather Conditions
Hartford, Connecticut
Broken Clouds
Broken Clouds
74°
Feels Like: 74°
Wind Chill: 74° Ceiling: 8000
Heat Index: 74° Visibility: 10mi
Dew Point: 48° Wind: 8mph
Humidity: 40% Direction: 310° (NW)
Pressure: 29.91in Gusts: 0mph
Raw Report DataKHFD 292253Z 31007KT 10SM BKN080 23/09 A2991 RMK AO2 SLP127 T02330089
Traffic Incident Summary
Active as of:
Severity:
Category:
InformationThere was an issue retrieving the traffic information for this location. Please try a different location or try again shortly.
Advertisements
Track Severe Weather on mobile